sensor_id;sensor_type;location;lat;lon;timestamp;P1;durP1;ratioP1;P2;durP2;ratioP2
8704;SDS011;4389;41.932;25.904;2023-03-15T00:01:48;15.73;;;7.20;;
8704;SDS011;4389;41.932;25.904;2023-03-15T00:04:15;16.07;;;7.43;;
8704;SDS011;4389;41.932;25.904;2023-03-15T00:06:41;10.53;;;7.07;;
8704;SDS011;4389;41.932;25.904;2023-03-15T00:09:08;11.93;;;7.10;;
8704;SDS011;4389;41.932;25.904;2023-03-15T00:11:35;11.47;;;6.53;;
8704;SDS011;4389;41.932;25.904;2023-03-15T00:14:02;11.87;;;6.50;;
8704;SDS011;4389;41.932;25.904;2023-03-15T00:16:30;8.53;;;7.10;;
8704;SDS011;4389;41.932;25.904;2023-03-15T00:18:58;11.00;;;7.40;;
8704;SDS011;4389;41.932;25.904;2023-03-15T00:21:25;15.93;;;7.17;;
8704;SDS011;4389;41.932;25.904;2023-03-15T00:23:53;11.53;;;7.53;;
8704;SDS011;4389;41.932;25.904;2023-03-15T00:26:20;16.80;;;8.20;;
8704;SDS011;4389;41.932;25.904;2023-03-15T00:28:47;9.37;;;7.23;;
8704;SDS011;4389;41.932;25.904;2023-03-15T00:31:15;14.77;;;8.37;;
8704;SDS011;4389;41.932;25.904;2023-03-15T00:33:43;18.43;;;8.27;;
8704;SDS011;4389;41.932;25.904;2023-03-15T00:36:12;12.47;;;7.30;;
8704;SDS011;4389;41.932;25.904;2023-03-15T00:38:40;13.03;;;7.87;;
8704;SDS011;4389;41.932;25.904;2023-03-15T00:41:09;10.60;;;7.83;;
8704;SDS011;4389;41.932;25.904;2023-03-15T00:43:37;11.87;;;8.43;;
8704;SDS011;4389;41.932;25.904;2023-03-15T00:46:04;12.33;;;8.43;;
8704;SDS011;4389;41.932;25.904;2023-03-15T00:48:32;11.03;;;7.97;;
8704;SDS011;4389;41.932;25.904;2023-03-15T00:51:03;11.73;;;8.50;;
8704;SDS011;4389;41.932;25.904;2023-03-15T00:53:33;16.87;;;8.37;;
8704;SDS011;4389;41.932;25.904;2023-03-15T00:56:04;19.73;;;8.67;;
8704;SDS011;4389;41.932;25.904;2023-03-15T00:58:32;12.67;;;8.00;;
8704;SDS011;4389;41.932;25.904;2023-03-15T01:00:59;15.70;;;8.00;;
8704;SDS011;4389;41.932;25.904;2023-03-15T01:03:26;12.13;;;8.90;;
8704;SDS011;4389;41.932;25.904;2023-03-15T01:05:53;10.70;;;8.40;;
8704;SDS011;4389;41.932;25.904;2023-03-15T01:08:20;13.53;;;8.10;;
8704;SDS011;4389;41.932;25.904;2023-03-15T01:10:49;11.17;;;7.63;;
8704;SDS011;4389;41.932;25.904;2023-03-15T01:13:16;10.80;;;7.63;;
8704;SDS011;4389;41.932;25.904;2023-03-15T01:15:44;11.43;;;8.23;;
8704;SDS011;4389;41.932;25.904;2023-03-15T01:18:11;9.87;;;7.60;;
8704;SDS011;4389;41.932;25.904;2023-03-15T01:20:40;13.83;;;8.03;;
8704;SDS011;4389;41.932;25.904;2023-03-15T01:23:08;11.00;;;7.97;;
8704;SDS011;4389;41.932;25.904;2023-03-15T01:25:35;19.17;;;9.17;;
8704;SDS011;4389;41.932;25.904;2023-03-15T01:28:03;10.77;;;7.63;;
8704;SDS011;4389;41.932;25.904;2023-03-15T01:30:30;9.80;;;8.23;;
8704;SDS011;4389;41.932;25.904;2023-03-15T01:32:57;9.00;;;7.57;;
8704;SDS011;4389;41.932;25.904;2023-03-15T01:35:24;10.47;;;8.00;;
8704;SDS011;4389;41.932;25.904;2023-03-15T01:37:50;10.83;;;8.60;;
8704;SDS011;4389;41.932;25.904;2023-03-15T01:40:17;9.63;;;7.43;;
8704;SDS011;4389;41.932;25.904;2023-03-15T01:42:51;14.23;;;7.90;;
8704;SDS011;4389;41.932;25.904;2023-03-15T01:48:31;13.73;;;8.07;;
8704;SDS011;4389;41.932;25.904;2023-03-15T01:51:03;9.63;;;8.00;;
8704;SDS011;4389;41.932;25.904;2023-03-15T01:53:36;12.10;;;8.07;;
8704;SDS011;4389;41.932;25.904;2023-03-15T01:56:07;14.60;;;7.83;;
8704;SDS011;4389;41.932;25.904;2023-03-15T01:58:35;13.13;;;8.17;;
8704;SDS011;4389;41.932;25.904;2023-03-15T02:01:05;9.83;;;7.00;;
8704;SDS011;4389;41.932;25.904;2023-03-15T02:03:34;9.33;;;7.37;;
8704;SDS011;4389;41.932;25.904;2023-03-15T02:06:10;11.17;;;8.37;;
8704;SDS011;4389;41.932;25.904;2023-03-15T02:08:43;14.47;;;8.70;;
8704;SDS011;4389;41.932;25.904;2023-03-15T02:11:12;10.17;;;7.80;;
8704;SDS011;4389;41.932;25.904;2023-03-15T02:13:39;9.27;;;7.53;;
8704;SDS011;4389;41.932;25.904;2023-03-15T02:16:06;9.40;;;7.80;;
8704;SDS011;4389;41.932;25.904;2023-03-15T02:18:34;10.67;;;7.73;;
8704;SDS011;4389;41.932;25.904;2023-03-15T02:21:04;13.40;;;8.10;;
8704;SDS011;4389;41.932;25.904;2023-03-15T02:23:39;11.07;;;7.83;;
8704;SDS011;4389;41.932;25.904;2023-03-15T02:26:09;13.97;;;8.33;;
8704;SDS011;4389;41.932;25.904;2023-03-15T02:28:44;13.67;;;8.30;;
8704;SDS011;4389;41.932;25.904;2023-03-15T02:31:11;10.87;;;7.50;;
8704;SDS011;4389;41.932;25.904;2023-03-15T02:33:40;20.30;;;9.17;;
8704;SDS011;4389;41.932;25.904;2023-03-15T02:36:13;13.27;;;8.30;;
8704;SDS011;4389;41.932;25.904;2023-03-15T02:38:42;18.57;;;9.20;;
8704;SDS011;4389;41.932;25.904;2023-03-15T02:41:09;14.27;;;8.70;;
8704;SDS011;4389;41.932;25.904;2023-03-15T02:43:36;15.43;;;8.40;;
8704;SDS011;4389;41.932;25.904;2023-03-15T02:46:06;13.80;;;8.70;;
8704;SDS011;4389;41.932;25.904;2023-03-15T02:48:34;14.07;;;9.07;;
8704;SDS011;4389;41.932;25.904;2023-03-15T02:51:03;11.97;;;9.17;;
8704;SDS011;4389;41.932;25.904;2023-03-15T02:53:30;12.80;;;8.47;;
8704;SDS011;4389;41.932;25.904;2023-03-15T02:55:57;9.73;;;8.33;;
8704;SDS011;4389;41.932;25.904;2023-03-15T02:58:24;14.03;;;9.17;;
8704;SDS011;4389;41.932;25.904;2023-03-15T03:00:51;12.93;;;8.30;;
8704;SDS011;4389;41.932;25.904;2023-03-15T03:03:20;13.50;;;8.50;;
8704;SDS011;4389;41.932;25.904;2023-03-15T03:05:47;13.00;;;8.93;;
8704;SDS011;4389;41.932;25.904;2023-03-15T03:08:14;12.50;;;8.83;;
8704;SDS011;4389;41.932;25.904;2023-03-15T03:10:41;12.90;;;8.60;;
8704;SDS011;4389;41.932;25.904;2023-03-15T03:13:08;15.67;;;8.80;;
8704;SDS011;4389;41.932;25.904;2023-03-15T03:15:35;12.17;;;8.80;;
8704;SDS011;4389;41.932;25.904;2023-03-15T03:18:02;13.43;;;8.97;;
8704;SDS011;4389;41.932;25.904;2023-03-15T03:20:30;14.90;;;9.30;;
8704;SDS011;4389;41.932;25.904;2023-03-15T03:22:57;16.97;;;9.60;;
8704;SDS011;4389;41.932;25.904;2023-03-15T03:25:24;13.43;;;8.83;;
8704;SDS011;4389;41.932;25.904;2023-03-15T03:27:52;12.23;;;8.67;;
8704;SDS011;4389;41.932;25.904;2023-03-15T03:30:21;14.93;;;9.17;;
8704;SDS011;4389;41.932;25.904;2023-03-15T03:32:48;11.07;;;8.87;;
8704;SDS011;4389;41.932;25.904;2023-03-15T03:35:15;14.07;;;10.50;;
8704;SDS011;4389;41.932;25.904;2023-03-15T03:37:44;14.07;;;9.80;;
8704;SDS011;4389;41.932;25.904;2023-03-15T03:40:11;19.87;;;12.77;;
8704;SDS011;4389;41.932;25.904;2023-03-15T03:42:38;20.03;;;13.60;;
8704;SDS011;4389;41.932;25.904;2023-03-15T03:45:05;18.87;;;13.97;;
8704;SDS011;4389;41.932;25.904;2023-03-15T03:47:33;18.70;;;14.90;;
8704;SDS011;4389;41.932;25.904;2023-03-15T03:50:00;20.97;;;14.93;;
8704;SDS011;4389;41.932;25.904;2023-03-15T03:52:27;19.03;;;14.10;;
8704;SDS011;4389;41.932;25.904;2023-03-15T03:54:55;22.23;;;13.00;;
8704;SDS011;4389;41.932;25.904;2023-03-15T03:57:22;18.27;;;12.70;;
8704;SDS011;4389;41.932;25.904;2023-03-15T03:59:49;15.83;;;12.43;;
8704;SDS011;4389;41.932;25.904;2023-03-15T04:02:15;17.33;;;11.93;;
8704;SDS011;4389;41.932;25.904;2023-03-15T04:04:43;23.07;;;12.50;;
8704;SDS011;4389;41.932;25.904;2023-03-15T04:07:09;21.20;;;11.73;;
8704;SDS011;4389;41.932;25.904;2023-03-15T04:09:36;31.30;;;13.83;;
8704;SDS011;4389;41.932;25.904;2023-03-15T04:12:04;17.73;;;12.17;;
8704;SDS011;4389;41.932;25.904;2023-03-15T04:14:31;18.27;;;12.37;;
8704;SDS011;4389;41.932;25.904;2023-03-15T04:16:58;15.30;;;12.37;;
8704;SDS011;4389;41.932;25.904;2023-03-15T04:19:28;18.03;;;12.33;;
8704;SDS011;4389;41.932;25.904;2023-03-15T04:21:54;14.17;;;11.67;;
8704;SDS011;4389;41.932;25.904;2023-03-15T04:24:22;16.47;;;11.53;;
8704;SDS011;4389;41.932;25.904;2023-03-15T04:26:48;18.23;;;12.57;;
8704;SDS011;4389;41.932;25.904;2023-03-15T04:29:17;15.37;;;11.37;;
8704;SDS011;4389;41.932;25.904;2023-03-15T04:31:43;14.53;;;10.93;;
8704;SDS011;4389;41.932;25.904;2023-03-15T04:34:10;18.93;;;10.63;;
8704;SDS011;4389;41.932;25.904;2023-03-15T04:36:37;16.73;;;11.80;;
8704;SDS011;4389;41.932;25.904;2023-03-15T04:39:04;18.70;;;12.33;;
8704;SDS011;4389;41.932;25.904;2023-03-15T04:41:31;19.07;;;11.90;;
8704;SDS011;4389;41.932;25.904;2023-03-15T04:44:00;21.33;;;11.60;;
8704;SDS011;4389;41.932;25.904;2023-03-15T04:46:29;16.70;;;13.07;;
8704;SDS011;4389;41.932;25.904;2023-03-15T04:48:56;16.60;;;10.90;;
8704;SDS011;4389;41.932;25.904;2023-03-15T04:51:23;13.73;;;11.00;;
8704;SDS011;4389;41.932;25.904;2023-03-15T04:53:50;21.07;;;10.20;;
8704;SDS011;4389;41.932;25.904;2023-03-15T04:56:17;25.27;;;10.90;;
8704;SDS011;4389;41.932;25.904;2023-03-15T04:58:44;18.50;;;10.03;;
8704;SDS011;4389;41.932;25.904;2023-03-15T05:01:11;18.07;;;11.13;;
8704;SDS011;4389;41.932;25.904;2023-03-15T05:03:39;18.13;;;12.43;;
8704;SDS011;4389;41.932;25.904;2023-03-15T05:06:06;20.47;;;11.50;;
8704;SDS011;4389;41.932;25.904;2023-03-15T05:08:33;20.57;;;12.37;;
8704;SDS011;4389;41.932;25.904;2023-03-15T05:11:00;25.93;;;11.40;;
8704;SDS011;4389;41.932;25.904;2023-03-15T05:13:29;21.70;;;10.70;;
8704;SDS011;4389;41.932;25.904;2023-03-15T05:15:56;18.00;;;11.67;;
8704;SDS011;4389;41.932;25.904;2023-03-15T05:18:23;14.40;;;11.07;;
8704;SDS011;4389;41.932;25.904;2023-03-15T05:20:51;19.17;;;11.83;;
8704;SDS011;4389;41.932;25.904;2023-03-15T05:23:20;16.70;;;11.83;;
8704;SDS011;4389;41.932;25.904;2023-03-15T05:25:50;25.03;;;14.20;;
8704;SDS011;4389;41.932;25.904;2023-03-15T05:28:19;17.80;;;14.07;;
8704;SDS011;4389;41.932;25.904;2023-03-15T05:30:46;27.27;;;16.07;;
8704;SDS011;4389;41.932;25.904;2023-03-15T05:33:13;19.63;;;15.10;;
8704;SDS011;4389;41.932;25.904;2023-03-15T05:35:40;25.10;;;13.60;;
8704;SDS011;4389;41.932;25.904;2023-03-15T05:38:10;18.60;;;14.40;;
8704;SDS011;4389;41.932;25.904;2023-03-15T05:40:38;30.13;;;16.37;;
8704;SDS011;4389;41.932;25.904;2023-03-15T05:43:06;29.10;;;16.47;;
8704;SDS011;4389;41.932;25.904;2023-03-15T05:45:33;26.97;;;16.13;;
8704;SDS011;4389;41.932;25.904;2023-03-15T05:48:00;36.00;;;16.93;;
8704;SDS011;4389;41.932;25.904;2023-03-15T05:50:27;30.17;;;18.43;;
8704;SDS011;4389;41.932;25.904;2023-03-15T05:52:54;37.13;;;17.17;;
8704;SDS011;4389;41.932;25.904;2023-03-15T05:55:23;28.27;;;17.27;;
8704;SDS011;4389;41.932;25.904;2023-03-15T05:57:50;26.10;;;17.80;;
8704;SDS011;4389;41.932;25.904;2023-03-15T06:00:17;29.70;;;17.37;;
8704;SDS011;4389;41.932;25.904;2023-03-15T06:02:45;37.50;;;20.70;;
8704;SDS011;4389;41.932;25.904;2023-03-15T06:05:12;32.37;;;19.87;;
8704;SDS011;4389;41.932;25.904;2023-03-15T06:07:38;40.03;;;21.00;;
8704;SDS011;4389;41.932;25.904;2023-03-15T06:10:06;33.37;;;21.60;;
8704;SDS011;4389;41.932;25.904;2023-03-15T06:12:34;40.70;;;22.93;;
8704;SDS011;4389;41.932;25.904;2023-03-15T06:15:01;35.77;;;21.83;;
8704;SDS011;4389;41.932;25.904;2023-03-15T06:17:28;46.43;;;23.87;;
8704;SDS011;4389;41.932;25.904;2023-03-15T06:19:55;40.57;;;25.00;;
8704;SDS011;4389;41.932;25.904;2023-03-15T06:22:22;39.33;;;24.00;;
8704;SDS011;4389;41.932;25.904;2023-03-15T06:24:49;36.50;;;22.97;;
8704;SDS011;4389;41.932;25.904;2023-03-15T06:27:15;33.53;;;21.23;;
8704;SDS011;4389;41.932;25.904;2023-03-15T06:29:47;34.23;;;17.03;;
8704;SDS011;4389;41.932;25.904;2023-03-15T06:32:14;30.27;;;18.27;;
8704;SDS011;4389;41.932;25.904;2023-03-15T06:34:41;35.73;;;19.83;;
8704;SDS011;4389;41.932;25.904;2023-03-15T06:37:08;29.83;;;20.07;;
8704;SDS011;4389;41.932;25.904;2023-03-15T06:39:37;32.47;;;20.43;;
8704;SDS011;4389;41.932;25.904;2023-03-15T06:42:04;42.10;;;20.47;;
8704;SDS011;4389;41.932;25.904;2023-03-15T06:44:32;34.37;;;19.60;;
8704;SDS011;4389;41.932;25.904;2023-03-15T06:47:01;31.77;;;18.83;;
8704;SDS011;4389;41.932;25.904;2023-03-15T06:49:28;28.10;;;17.67;;
8704;SDS011;4389;41.932;25.904;2023-03-15T06:51:55;24.97;;;16.17;;
8704;SDS011;4389;41.932;25.904;2023-03-15T06:54:22;28.93;;;18.87;;
8704;SDS011;4389;41.932;25.904;2023-03-15T06:56:48;34.37;;;19.77;;
8704;SDS011;4389;41.932;25.904;2023-03-15T06:59:15;30.33;;;18.10;;
8704;SDS011;4389;41.932;25.904;2023-03-15T07:01:42;31.00;;;19.27;;
8704;SDS011;4389;41.932;25.904;2023-03-15T07:04:11;31.97;;;19.10;;
8704;SDS011;4389;41.932;25.904;2023-03-15T07:06:37;24.50;;;17.57;;
8704;SDS011;4389;41.932;25.904;2023-03-15T07:09:04;27.00;;;17.43;;
8704;SDS011;4389;41.932;25.904;2023-03-15T07:11:31;35.40;;;19.43;;
8704;SDS011;4389;41.932;25.904;2023-03-15T07:13:58;29.63;;;18.73;;
8704;SDS011;4389;41.932;25.904;2023-03-15T07:16:25;30.40;;;19.40;;
8704;SDS011;4389;41.932;25.904;2023-03-15T07:18:52;35.43;;;18.43;;
8704;SDS011;4389;41.932;25.904;2023-03-15T07:21:21;53.63;;;19.07;;
8704;SDS011;4389;41.932;25.904;2023-03-15T07:23:48;26.50;;;16.40;;
8704;SDS011;4389;41.932;25.904;2023-03-15T07:26:15;22.30;;;14.53;;
8704;SDS011;4389;41.932;25.904;2023-03-15T07:28:42;25.83;;;17.33;;
8704;SDS011;4389;41.932;25.904;2023-03-15T07:31:09;28.33;;;15.33;;
8704;SDS011;4389;41.932;25.904;2023-03-15T07:33:36;26.60;;;16.57;;
8704;SDS011;4389;41.932;25.904;2023-03-15T07:36:04;30.00;;;16.60;;
8704;SDS011;4389;41.932;25.904;2023-03-15T07:38:33;26.03;;;14.07;;
8704;SDS011;4389;41.932;25.904;2023-03-15T07:41:01;27.97;;;16.17;;
8704;SDS011;4389;41.932;25.904;2023-03-15T07:43:29;24.93;;;15.27;;
8704;SDS011;4389;41.932;25.904;2023-03-15T07:45:56;39.70;;;13.80;;
8704;SDS011;4389;41.932;25.904;2023-03-15T07:48:23;22.90;;;15.77;;
8704;SDS011;4389;41.932;25.904;2023-03-15T07:50:50;24.27;;;14.53;;
8704;SDS011;4389;41.932;25.904;2023-03-15T07:53:17;28.53;;;13.80;;
8704;SDS011;4389;41.932;25.904;2023-03-15T07:55:47;34.87;;;15.67;;
8704;SDS011;4389;41.932;25.904;2023-03-15T07:58:14;35.80;;;13.80;;
8704;SDS011;4389;41.932;25.904;2023-03-15T08:00:41;21.13;;;12.70;;
8704;SDS011;4389;41.932;25.904;2023-03-15T08:03:08;22.20;;;13.47;;
8704;SDS011;4389;41.932;25.904;2023-03-15T08:05:35;22.57;;;14.00;;
8704;SDS011;4389;41.932;25.904;2023-03-15T08:08:02;29.87;;;15.30;;
8704;SDS011;4389;41.932;25.904;2023-03-15T08:10:29;20.97;;;14.00;;
8704;SDS011;4389;41.932;25.904;2023-03-15T08:12:57;25.57;;;14.97;;
8704;SDS011;4389;41.932;25.904;2023-03-15T08:15:24;24.90;;;15.50;;
8704;SDS011;4389;41.932;25.904;2023-03-15T08:17:51;21.83;;;14.60;;
8704;SDS011;4389;41.932;25.904;2023-03-15T08:20:18;34.97;;;16.33;;
8704;SDS011;4389;41.932;25.904;2023-03-15T08:22:45;22.63;;;15.30;;
8704;SDS011;4389;41.932;25.904;2023-03-15T08:25:14;27.10;;;16.00;;
8704;SDS011;4389;41.932;25.904;2023-03-15T08:27:42;28.53;;;16.43;;
8704;SDS011;4389;41.932;25.904;2023-03-15T08:30:11;28.13;;;18.47;;
8704;SDS011;4389;41.932;25.904;2023-03-15T08:32:39;29.57;;;18.27;;
8704;SDS011;4389;41.932;25.904;2023-03-15T08:35:08;33.60;;;20.30;;
8704;SDS011;4389;41.932;25.904;2023-03-15T08:37:36;28.87;;;19.03;;
8704;SDS011;4389;41.932;25.904;2023-03-15T08:40:03;36.63;;;20.83;;
8704;SDS011;4389;41.932;25.904;2023-03-15T08:42:33;40.00;;;21.63;;
8704;SDS011;4389;41.932;25.904;2023-03-15T08:45:01;42.77;;;21.10;;
8704;SDS011;4389;41.932;25.904;2023-03-15T08:47:29;41.07;;;21.13;;
8704;SDS011;4389;41.932;25.904;2023-03-15T08:49:56;33.17;;;22.33;;
8704;SDS011;4389;41.932;25.904;2023-03-15T08:52:23;39.73;;;21.37;;
8704;SDS011;4389;41.932;25.904;2023-03-15T08:54:49;63.30;;;21.10;;
8704;SDS011;4389;41.932;25.904;2023-03-15T08:57:16;30.47;;;20.00;;
8704;SDS011;4389;41.932;25.904;2023-03-15T08:59:43;28.63;;;17.57;;
8704;SDS011;4389;41.932;25.904;2023-03-15T09:02:10;34.50;;;18.50;;
8704;SDS011;4389;41.932;25.904;2023-03-15T09:04:38;37.13;;;19.63;;
8704;SDS011;4389;41.932;25.904;2023-03-15T09:07:05;29.60;;;18.80;;
8704;SDS011;4389;41.932;25.904;2023-03-15T09:09:32;24.67;;;16.67;;
8704;SDS011;4389;41.932;25.904;2023-03-15T09:11:59;31.13;;;18.30;;
8704;SDS011;4389;41.932;25.904;2023-03-15T09:14:26;31.50;;;20.93;;
8704;SDS011;4389;41.932;25.904;2023-03-15T09:16:53;35.67;;;20.40;;
8704;SDS011;4389;41.932;25.904;2023-03-15T09:19:20;31.30;;;19.27;;
8704;SDS011;4389;41.932;25.904;2023-03-15T09:21:48;29.43;;;18.27;;
8704;SDS011;4389;41.932;25.904;2023-03-15T09:24:15;26.00;;;17.80;;
8704;SDS011;4389;41.932;25.904;2023-03-15T09:26:42;26.57;;;16.47;;
8704;SDS011;4389;41.932;25.904;2023-03-15T09:29:09;29.27;;;17.20;;
8704;SDS011;4389;41.932;25.904;2023-03-15T09:31:36;39.43;;;19.80;;
8704;SDS011;4389;41.932;25.904;2023-03-15T09:34:03;22.80;;;15.93;;
8704;SDS011;4389;41.932;25.904;2023-03-15T09:36:30;24.17;;;14.83;;
8704;SDS011;4389;41.932;25.904;2023-03-15T09:38:58;20.30;;;13.43;;
8704;SDS011;4389;41.932;25.904;2023-03-15T09:41:31;21.70;;;15.90;;
8704;SDS011;4389;41.932;25.904;2023-03-15T09:47:11;20.87;;;13.00;;
8704;SDS011;4389;41.932;25.904;2023-03-15T09:49:48;42.07;;;22.83;;
8704;SDS011;4389;41.932;25.904;2023-03-15T09:52:23;33.07;;;17.77;;
8704;SDS011;4389;41.932;25.904;2023-03-15T09:54:58;31.70;;;17.93;;
8704;SDS011;4389;41.932;25.904;2023-03-15T09:57:34;30.47;;;19.57;;
8704;SDS011;4389;41.932;25.904;2023-03-15T10:00:05;38.43;;;21.30;;
8704;SDS011;4389;41.932;25.904;2023-03-15T10:02:38;34.63;;;22.03;;
8704;SDS011;4389;41.932;25.904;2023-03-15T10:05:11;25.20;;;17.77;;
8704;SDS011;4389;41.932;25.904;2023-03-15T10:07:43;31.50;;;17.23;;
8704;SDS011;4389;41.932;25.904;2023-03-15T10:12:45;37.77;;;17.87;;
8704;SDS011;4389;41.932;25.904;2023-03-15T10:18:14;25.93;;;16.50;;
8704;SDS011;4389;41.932;25.904;2023-03-15T10:20:55;25.90;;;13.70;;
8704;SDS011;4389;41.932;25.904;2023-03-15T10:23:31;17.40;;;13.30;;
8704;SDS011;4389;41.932;25.904;2023-03-15T10:26:09;27.23;;;15.20;;
8704;SDS011;4389;41.932;25.904;2023-03-15T10:28:39;20.83;;;13.70;;
8704;SDS011;4389;41.932;25.904;2023-03-15T10:31:10;23.73;;;13.87;;
8704;SDS011;4389;41.932;25.904;2023-03-15T10:33:39;37.07;;;17.67;;
8704;SDS011;4389;41.932;25.904;2023-03-15T10:36:12;23.40;;;13.37;;
8704;SDS011;4389;41.932;25.904;2023-03-15T10:38:41;35.57;;;15.17;;
8704;SDS011;4389;41.932;25.904;2023-03-15T10:41:11;25.47;;;11.93;;
8704;SDS011;4389;41.932;25.904;2023-03-15T10:43:39;35.83;;;14.17;;
8704;SDS011;4389;41.932;25.904;2023-03-15T10:46:07;17.93;;;11.80;;
8704;SDS011;4389;41.932;25.904;2023-03-15T10:48:36;19.37;;;11.63;;
8704;SDS011;4389;41.932;25.904;2023-03-15T10:51:05;24.93;;;14.17;;
8704;SDS011;4389;41.932;25.904;2023-03-15T10:53:46;23.50;;;12.33;;
8704;SDS011;4389;41.932;25.904;2023-03-15T10:56:21;27.20;;;15.77;;
8704;SDS011;4389;41.932;25.904;2023-03-15T10:58:50;19.87;;;13.40;;
8704;SDS011;4389;41.932;25.904;2023-03-15T11:01:22;18.53;;;12.70;;
8704;SDS011;4389;41.932;25.904;2023-03-15T11:04:05;22.70;;;14.83;;
8704;SDS011;4389;41.932;25.904;2023-03-15T11:06:41;18.93;;;12.10;;
8704;SDS011;4389;41.932;25.904;2023-03-15T11:09:10;24.37;;;14.10;;
8704;SDS011;4389;41.932;25.904;2023-03-15T11:11:53;19.80;;;11.43;;
8704;SDS011;4389;41.932;25.904;2023-03-15T11:14:23;26.13;;;11.93;;
8704;SDS011;4389;41.932;25.904;2023-03-15T11:16:52;19.47;;;10.77;;
8704;SDS011;4389;41.932;25.904;2023-03-15T11:19:21;18.13;;;12.57;;
8704;SDS011;4389;41.932;25.904;2023-03-15T11:21:51;16.10;;;10.53;;
8704;SDS011;4389;41.932;25.904;2023-03-15T11:24:21;13.87;;;9.03;;
8704;SDS011;4389;41.932;25.904;2023-03-15T11:26:53;21.20;;;11.30;;
8704;SDS011;4389;41.932;25.904;2023-03-15T11:29:22;22.17;;;12.53;;
8704;SDS011;4389;41.932;25.904;2023-03-15T11:31:52;23.37;;;14.00;;
8704;SDS011;4389;41.932;25.904;2023-03-15T11:34:23;17.50;;;11.57;;
8704;SDS011;4389;41.932;25.904;2023-03-15T11:36:54;22.40;;;12.13;;
8704;SDS011;4389;41.932;25.904;2023-03-15T11:39:28;27.57;;;16.43;;
8704;SDS011;4389;41.932;25.904;2023-03-15T11:42:04;15.07;;;9.73;;
8704;SDS011;4389;41.932;25.904;2023-03-15T11:44:36;18.60;;;11.50;;
8704;SDS011;4389;41.932;25.904;2023-03-15T11:47:07;20.83;;;11.10;;
8704;SDS011;4389;41.932;25.904;2023-03-15T11:49:40;18.13;;;9.17;;
8704;SDS011;4389;41.932;25.904;2023-03-15T11:52:13;20.93;;;11.37;;
8704;SDS011;4389;41.932;25.904;2023-03-15T11:54:41;22.70;;;13.60;;
8704;SDS011;4389;41.932;25.904;2023-03-15T12:06:11;15.77;;;10.00;;
8704;SDS011;4389;41.932;25.904;2023-03-15T12:08:53;18.13;;;10.50;;
8704;SDS011;4389;41.932;25.904;2023-03-15T12:11:40;18.90;;;9.73;;
8704;SDS011;4389;41.932;25.904;2023-03-15T12:14:24;17.93;;;9.50;;
8704;SDS011;4389;41.932;25.904;2023-03-15T12:16:57;9.00;;;7.07;;
8704;SDS011;4389;41.932;25.904;2023-03-15T12:20:06;12.23;;;6.80;;
8704;SDS011;4389;41.932;25.904;2023-03-15T12:22:39;12.23;;;7.27;;
8704;SDS011;4389;41.932;25.904;2023-03-15T12:25:13;16.07;;;10.37;;
8704;SDS011;4389;41.932;25.904;2023-03-15T12:27:43;12.73;;;8.67;;
8704;SDS011;4389;41.932;25.904;2023-03-15T12:30:20;11.67;;;8.17;;
8704;SDS011;4389;41.932;25.904;2023-03-15T12:32:51;15.70;;;8.70;;
8704;SDS011;4389;41.932;25.904;2023-03-15T12:35:21;16.33;;;7.93;;
8704;SDS011;4389;41.932;25.904;2023-03-15T12:37:53;28.90;;;13.67;;
8704;SDS011;4389;41.932;25.904;2023-03-15T12:40:28;16.40;;;8.80;;
8704;SDS011;4389;41.932;25.904;2023-03-15T12:43:03;9.30;;;5.20;;
8704;SDS011;4389;41.932;25.904;2023-03-15T12:45:36;6.47;;;3.93;;
8704;SDS011;4389;41.932;25.904;2023-03-15T12:48:17;7.83;;;3.10;;
8704;SDS011;4389;41.932;25.904;2023-03-15T12:50:49;7.80;;;3.57;;
8704;SDS011;4389;41.932;25.904;2023-03-15T12:53:20;5.70;;;3.10;;
8704;SDS011;4389;41.932;25.904;2023-03-15T12:55:53;5.97;;;4.13;;
8704;SDS011;4389;41.932;25.904;2023-03-15T12:58:25;5.43;;;2.90;;
8704;SDS011;4389;41.932;25.904;2023-03-15T13:01:03;5.33;;;3.40;;
8704;SDS011;4389;41.932;25.904;2023-03-15T13:03:33;5.57;;;3.43;;
8704;SDS011;4389;41.932;25.904;2023-03-15T13:06:02;4.93;;;3.30;;
8704;SDS011;4389;41.932;25.904;2023-03-15T13:08:37;4.20;;;3.13;;
8704;SDS011;4389;41.932;25.904;2023-03-15T13:11:15;7.60;;;5.47;;
8704;SDS011;4389;41.932;25.904;2023-03-15T13:16:42;8.47;;;5.30;;
8704;SDS011;4389;41.932;25.904;2023-03-15T13:19:15;6.60;;;4.53;;
8704;SDS011;4389;41.932;25.904;2023-03-15T13:21:52;10.80;;;4.93;;
8704;SDS011;4389;41.932;25.904;2023-03-15T13:24:30;7.80;;;4.53;;
8704;SDS011;4389;41.932;25.904;2023-03-15T13:27:05;4.50;;;3.37;;
8704;SDS011;4389;41.932;25.904;2023-03-15T13:29:39;4.90;;;3.67;;
8704;SDS011;4389;41.932;25.904;2023-03-15T13:32:10;15.17;;;5.07;;
8704;SDS011;4389;41.932;25.904;2023-03-15T13:34:39;9.00;;;4.57;;
8704;SDS011;4389;41.932;25.904;2023-03-15T13:37:10;7.57;;;3.87;;
8704;SDS011;4389;41.932;25.904;2023-03-15T13:39:50;6.03;;;4.00;;
8704;SDS011;4389;41.932;25.904;2023-03-15T13:42:23;7.33;;;3.80;;
8704;SDS011;4389;41.932;25.904;2023-03-15T13:45:06;9.87;;;3.10;;
8704;SDS011;4389;41.932;25.904;2023-03-15T13:47:39;4.97;;;3.13;;
8704;SDS011;4389;41.932;25.904;2023-03-15T13:50:11;4.43;;;2.83;;
8704;SDS011;4389;41.932;25.904;2023-03-15T13:52:40;11.60;;;5.00;;
8704;SDS011;4389;41.932;25.904;2023-03-15T13:55:08;7.80;;;4.90;;
8704;SDS011;4389;41.932;25.904;2023-03-15T13:57:38;7.77;;;4.10;;
8704;SDS011;4389;41.932;25.904;2023-03-15T14:00:07;7.47;;;4.00;;
8704;SDS011;4389;41.932;25.904;2023-03-15T14:02:36;10.90;;;4.20;;
8704;SDS011;4389;41.932;25.904;2023-03-15T14:05:14;8.37;;;5.23;;
8704;SDS011;4389;41.932;25.904;2023-03-15T14:07:43;8.60;;;4.77;;
8704;SDS011;4389;41.932;25.904;2023-03-15T14:10:20;5.60;;;3.53;;
8704;SDS011;4389;41.932;25.904;2023-03-15T14:12:55;7.67;;;4.47;;
8704;SDS011;4389;41.932;25.904;2023-03-15T14:15:24;6.10;;;3.40;;
8704;SDS011;4389;41.932;25.904;2023-03-15T14:17:53;13.47;;;4.40;;
8704;SDS011;4389;41.932;25.904;2023-03-15T14:20:28;8.57;;;5.00;;
8704;SDS011;4389;41.932;25.904;2023-03-15T14:23:00;8.30;;;3.67;;
8704;SDS011;4389;41.932;25.904;2023-03-15T14:25:32;7.60;;;5.03;;
8704;SDS011;4389;41.932;25.904;2023-03-15T14:28:00;6.03;;;3.40;;
8704;SDS011;4389;41.932;25.904;2023-03-15T14:30:28;9.33;;;3.80;;
8704;SDS011;4389;41.932;25.904;2023-03-15T14:32:58;6.40;;;4.00;;
8704;SDS011;4389;41.932;25.904;2023-03-15T14:35:30;9.43;;;4.87;;
8704;SDS011;4389;41.932;25.904;2023-03-15T14:38:07;7.33;;;5.07;;
8704;SDS011;4389;41.932;25.904;2023-03-15T14:40:40;7.33;;;3.47;;
8704;SDS011;4389;41.932;25.904;2023-03-15T14:43:08;6.07;;;3.30;;
8704;SDS011;4389;41.932;25.904;2023-03-15T14:45:36;10.37;;;4.33;;
8704;SDS011;4389;41.932;25.904;2023-03-15T14:48:05;5.53;;;4.13;;
8704;SDS011;4389;41.932;25.904;2023-03-15T14:50:38;7.33;;;5.87;;
8704;SDS011;4389;41.932;25.904;2023-03-15T14:53:06;6.13;;;4.50;;
8704;SDS011;4389;41.932;25.904;2023-03-15T14:55:35;9.87;;;6.77;;
8704;SDS011;4389;41.932;25.904;2023-03-15T14:58:03;9.43;;;6.50;;
8704;SDS011;4389;41.932;25.904;2023-03-15T15:00:36;8.10;;;5.77;;
8704;SDS011;4389;41.932;25.904;2023-03-15T15:03:05;8.03;;;4.73;;
8704;SDS011;4389;41.932;25.904;2023-03-15T15:05:40;11.60;;;7.13;;
8704;SDS011;4389;41.932;25.904;2023-03-15T15:08:08;11.40;;;7.10;;
8704;SDS011;4389;41.932;25.904;2023-03-15T15:10:37;10.03;;;5.67;;
8704;SDS011;4389;41.932;25.904;2023-03-15T15:13:05;15.93;;;8.23;;
8704;SDS011;4389;41.932;25.904;2023-03-15T15:15:32;12.13;;;8.63;;
8704;SDS011;4389;41.932;25.904;2023-03-15T15:17:59;12.03;;;7.87;;
8704;SDS011;4389;41.932;25.904;2023-03-15T15:20:26;9.13;;;6.80;;